Time;durP1;ratioP1;P1;durP2;ratioP2;P2;SDS_P1;SDS_P2;PMS_P1;PMS_P2;Temp;Humidity;BMP_temperature;BMP_pressure;BME280_temperature;BME280_humidity;BME280_pressure;Samples;Min_cycle;Max_cycle;Signal;HPM_P1;HPM_P2
2023/03/24 00:01:19;;;;;;;11.13;8.70;;;;;;;;;;5112862;28;20249;-84
2023/03/24 00:03:50;;;;;;;8.30;6.00;;;;;;;;;;5113087;28;20206;-83
2023/03/24 00:06:21;;;;;;;10.63;7.90;;;;;;;;;;5113011;28;20215;-84
2023/03/24 00:08:51;;;;;;;4.60;3.67;;;;;;;;;;5112805;28;20249;-84
2023/03/24 00:11:21;;;;;;;8.20;7.10;;;;;;;;;;5112869;28;20220;-83
2023/03/24 00:13:50;;;;;;;9.63;6.07;;;;;;;;;;5112692;28;20210;-84
2023/03/24 00:16:20;;;;;;;9.03;6.37;;;;;;;;;;5113235;28;20239;-84
2023/03/24 00:18:51;;;;;;;9.17;5.97;;;;;;;;;;5112938;28;20196;-85
2023/03/24 00:21:23;;;;;;;8.33;7.50;;;;;;;;;;5112824;28;20299;-84
2023/03/24 00:23:53;;;;;;;9.47;8.50;;;;;;;;;;5112432;28;20334;-84
2023/03/24 00:26:23;;;;;;;6.83;4.43;;;;;;;;;;5112541;28;20244;-82
2023/03/24 00:28:53;;;;;;;8.10;6.97;;;;;;;;;;5112460;28;20193;-84
2023/03/24 00:31:23;;;;;;;9.13;8.17;;;;;;;;;;5112472;28;20220;-84
2023/03/24 00:33:52;;;;;;;7.73;5.13;;;;;;;;;;5112676;28;20207;-84
2023/03/24 00:36:22;;;;;;;9.73;8.83;;;;;;;;;;5112638;28;20230;-84
2023/03/24 00:38:51;;;;;;;10.77;9.67;;;;;;;;;;5112599;28;20247;-84
2023/03/24 00:41:20;;;;;;;10.07;7.97;;;;;;;;;;5112740;28;20279;-84
2023/03/24 00:43:50;;;;;;;9.87;8.90;;;;;;;;;;5112582;28;20257;-84
2023/03/24 00:46:27;;;;;;;9.40;8.43;;;;;;;;;;5112501;28;20287;-84
2023/03/24 00:49:00;;;;;;;9.37;8.37;;;;;;;;;;5112350;28;20249;-84
2023/03/24 00:51:30;;;;;;;9.70;8.80;;;;;;;;;;5112269;28;20216;-84
2023/03/24 00:53:58;;;;;;;6.90;6.17;;;;;;;;;;5112782;28;20287;-84
2023/03/24 00:56:28;;;;;;;10.03;9.13;;;;;;;;;;5112543;28;20303;-84
2023/03/24 00:59:01;;;;;;;9.73;8.80;;;;;;;;;;5112622;28;20291;-85
2023/03/24 01:01:31;;;;;;;9.53;8.57;;;;;;;;;;5112525;28;20196;-84
2023/03/24 01:04:01;;;;;;;8.07;7.17;;;;;;;;;;5112897;28;20245;-83
2023/03/24 01:06:30;;;;;;;8.00;7.20;;;;;;;;;;5112306;28;20469;-84
2023/03/24 01:08:58;;;;;;;11.80;8.67;;;;;;;;;;5112292;28;20284;-84
2023/03/24 01:11:27;;;;;;;8.10;7.20;;;;;;;;;;5112182;28;20323;-84
2023/03/24 01:13:55;;;;;;;9.87;6.93;;;;;;;;;;5112044;28;20239;-84
2023/03/24 01:16:26;;;;;;;6.57;5.87;;;;;;;;;;5112141;28;20200;-83
2023/03/24 01:18:55;;;;;;;7.17;6.53;;;;;;;;;;5112025;28;20287;-84
2023/03/24 01:21:24;;;;;;;6.10;5.50;;;;;;;;;;5112075;28;20236;-84
2023/03/24 01:23:52;;;;;;;8.73;7.27;;;;;;;;;;5111800;28;20240;-84
2023/03/24 01:26:21;;;;;;;9.67;6.70;;;;;;;;;;5111749;28;20204;-84
2023/03/24 01:28:49;;;;;;;5.20;4.70;;;;;;;;;;5112082;28;20206;-84
2023/03/24 01:31:18;;;;;;;6.43;3.93;;;;;;;;;;5111792;28;20255;-83
2023/03/24 01:33:48;;;;;;;4.63;4.23;;;;;;;;;;5112026;28;20204;-84
2023/03/24 01:36:16;;;;;;;3.10;2.57;;;;;;;;;;5112436;28;20212;-84
2023/03/24 01:38:44;;;;;;;7.73;5.30;;;;;;;;;;5111868;28;20201;-84
2023/03/24 01:41:13;;;;;;;3.83;3.43;;;;;;;;;;5111698;28;20197;-84
2023/03/24 01:43:41;;;;;;;5.50;2.97;;;;;;;;;;5112973;28;20249;-84
2023/03/24 01:46:18;;;;;;;4.47;3.10;;;;;;;;;;5115318;28;20211;-84
2023/03/24 01:48:50;;;;;;;3.87;3.10;;;;;;;;;;5115312;27;20276;-84
2023/03/24 01:51:20;;;;;;;3.47;2.93;;;;;;;;;;5115318;28;20235;-84
2023/03/24 01:53:50;;;;;;;7.77;3.87;;;;;;;;;;5115815;28;20200;-84
2023/03/24 01:56:19;;;;;;;5.50;3.13;;;;;;;;;;5115268;28;20196;-84
2023/03/24 01:58:49;;;;;;;5.00;2.83;;;;;;;;;;5115426;28;20235;-84
2023/03/24 02:01:18;;;;;;;6.57;2.90;;;;;;;;;;5115370;28;20295;-84
2023/03/24 02:03:47;;;;;;;5.13;2.50;;;;;;;;;;5115077;28;20205;-84
2023/03/24 02:06:18;;;;;;;1.33;1.33;;;;;;;;;;5114920;27;20230;-84
2023/03/24 02:08:50;;;;;;;5.20;2.43;;;;;;;;;;5115275;28;20204;-84
2023/03/24 02:11:19;;;;;;;6.53;2.50;;;;;;;;;;5114705;28;20230;-84
2023/03/24 02:13:48;;;;;;;1.70;1.60;;;;;;;;;;5115328;28;20204;-84
2023/03/24 02:16:20;;;;;;;6.53;1.70;;;;;;;;;;5114768;28;20207;-84
2023/03/24 02:18:53;;;;;;;9.77;3.13;;;;;;;;;;5115149;28;20233;-84
2023/03/24 02:21:50;;;;;;;8.07;3.90;;;;;;;;;;5114886;28;20196;-84
2023/03/24 02:24:34;;;;;;;6.10;2.83;;;;;;;;;;5114859;28;20219;-84
2023/03/24 02:27:08;;;;;;;8.03;3.17;;;;;;;;;;5106453;28;20204;-84
2023/03/24 02:29:59;;;;;;;6.43;1.90;;;;;;;;;;5114571;28;20195;-84
2023/03/24 02:32:46;;;;;;;7.07;2.13;;;;;;;;;;5114416;28;20220;-83
2023/03/24 02:35:28;;;;;;;6.30;2.40;;;;;;;;;;5107895;28;20200;-84
2023/03/24 02:38:07;;;;;;;12.83;4.03;;;;;;;;;;5114438;28;20192;-84
2023/03/24 02:40:39;;;;;;;5.53;2.60;;;;;;;;;;5114660;28;20237;-84
2023/03/24 02:43:14;;;;;;;4.60;3.50;;;;;;;;;;5114340;28;20224;-84
2023/03/24 02:45:48;;;;;;;9.17;3.73;;;;;;;;;;5114393;28;20200;-84
2023/03/24 02:48:22;;;;;;;10.90;3.33;;;;;;;;;;5114206;28;20298;-85
2023/03/24 02:50:51;;;;;;;5.80;2.50;;;;;;;;;;5114415;28;20207;-84
2023/03/24 02:53:23;;;;;;;9.83;2.60;;;;;;;;;;5113818;28;20267;-83
2023/03/24 02:55:54;;;;;;;6.10;2.40;;;;;;;;;;5114085;28;20241;-84
2023/03/24 02:58:25;;;;;;;6.57;2.60;;;;;;;;;;5114369;28;20243;-84
2023/03/24 03:00:58;;;;;;;7.87;3.20;;;;;;;;;;5113884;28;20232;-84
2023/03/24 03:03:29;;;;;;;0.80;0.80;;;;;;;;;;5114432;28;20279;-84
2023/03/24 03:06:00;;;;;;;4.37;2.33;;;;;;;;;;5113828;28;20220;-83
2023/03/24 03:08:31;;;;;;;11.47;3.63;;;;;;;;;;5113587;28;20203;-80
2023/03/24 03:11:02;;;;;;;9.53;3.87;;;;;;;;;;5114461;28;20198;-80
2023/03/24 03:13:32;;;;;;;8.23;3.40;;;;;;;;;;5113881;28;20308;-80
2023/03/24 03:16:04;;;;;;;12.43;3.33;;;;;;;;;;5113798;28;20199;-80
2023/03/24 03:18:34;;;;;;;3.60;1.63;;;;;;;;;;5113926;28;20256;-80
2023/03/24 03:21:05;;;;;;;8.13;2.33;;;;;;;;;;5113749;28;20232;-80
2023/03/24 03:23:36;;;;;;;6.77;2.17;;;;;;;;;;5113339;28;20235;-80
2023/03/24 03:26:08;;;;;;;6.27;2.83;;;;;;;;;;5113929;28;20276;-80
2023/03/24 03:28:39;;;;;;;6.23;3.27;;;;;;;;;;5114179;28;20232;-80
2023/03/24 03:31:09;;;;;;;6.47;3.03;;;;;;;;;;5113678;28;20296;-80
2023/03/24 03:33:39;;;;;;;6.30;2.60;;;;;;;;;;5113483;28;20284;-80
2023/03/24 03:36:09;;;;;;;7.73;1.97;;;;;;;;;;5113455;28;20242;-80
2023/03/24 03:38:43;;;;;;;9.67;3.50;;;;;;;;;;5113337;28;20199;-80
2023/03/24 03:41:13;;;;;;;7.87;3.20;;;;;;;;;;5113521;28;20206;-80
2023/03/24 03:43:42;;;;;;;3.43;2.87;;;;;;;;;;5112978;28;20221;-80
2023/03/24 03:46:12;;;;;;;6.10;1.30;;;;;;;;;;5113105;28;20194;-80
2023/03/24 03:48:41;;;;;;;5.90;2.97;;;;;;;;;;5113125;28;20213;-80
2023/03/24 03:51:10;;;;;;;11.63;4.70;;;;;;;;;;5113248;28;20413;-80
2023/03/24 03:53:44;;;;;;;8.63;4.33;;;;;;;;;;5113076;28;20238;-80
2023/03/24 03:56:17;;;;;;;4.00;3.20;;;;;;;;;;5113309;28;20211;-80
2023/03/24 03:58:46;;;;;;;2.10;1.70;;;;;;;;;;5112998;28;20294;-80
2023/03/24 04:01:17;;;;;;;5.23;2.33;;;;;;;;;;5113034;28;20294;-80
2023/03/24 04:04:07;;;;;;;8.17;2.70;;;;;;;;;;5113240;28;20202;-80
2023/03/24 04:06:38;;;;;;;10.70;3.20;;;;;;;;;;5078794;28;20233;-80
2023/03/24 04:09:11;;;;;;;3.53;1.47;;;;;;;;;;5112864;28;20337;-80
2023/03/24 04:11:46;;;;;;;4.10;1.73;;;;;;;;;;5112709;28;20329;-80
2023/03/24 04:14:21;;;;;;;1.97;1.37;;;;;;;;;;5112529;28;20210;-84
2023/03/24 04:16:55;;;;;;;3.40;2.23;;;;;;;;;;5112728;28;20232;-84
2023/03/24 04:19:32;;;;;;;8.23;2.97;;;;;;;;;;5112177;28;20204;-84
2023/03/24 04:22:08;;;;;;;8.77;2.63;;;;;;;;;;5112821;28;20228;-84
2023/03/24 04:24:40;;;;;;;4.67;1.90;;;;;;;;;;5112549;28;20224;-84
2023/03/24 04:27:15;;;;;;;9.50;3.00;;;;;;;;;;5112830;28;20237;-84
2023/03/24 04:29:51;;;;;;;12.73;2.50;;;;;;;;;;5112588;28;20267;-84
2023/03/24 04:32:23;;;;;;;4.50;1.73;;;;;;;;;;5112622;28;20195;-84
2023/03/24 04:35:00;;;;;;;5.23;2.27;;;;;;;;;;5112280;28;20221;-84
2023/03/24 04:37:31;;;;;;;8.17;1.77;;;;;;;;;;5112464;28;20199;-84
2023/03/24 04:40:00;;;;;;;6.77;2.87;;;;;;;;;;5112318;28;20202;-84
2023/03/24 04:42:33;;;;;;;3.80;1.80;;;;;;;;;;5112390;28;20209;-84
2023/03/24 04:45:02;;;;;;;3.57;1.90;;;;;;;;;;5112350;28;20197;-84
2023/03/24 04:47:31;;;;;;;9.17;3.53;;;;;;;;;;5112426;28;20222;-84
2023/03/24 04:50:06;;;;;;;9.30;2.77;;;;;;;;;;5112382;28;20205;-84
2023/03/24 04:52:34;;;;;;;9.63;3.50;;;;;;;;;;5112296;28;20362;-84
2023/03/24 04:55:05;;;;;;;6.90;2.80;;;;;;;;;;5112079;28;20271;-84
2023/03/24 04:57:35;;;;;;;15.20;4.20;;;;;;;;;;5112546;28;20207;-83
2023/03/24 05:00:07;;;;;;;9.90;2.90;;;;;;;;;;5111823;28;20241;-84
2023/03/24 05:02:35;;;;;;;6.63;2.70;;;;;;;;;;5111931;28;20206;-84
2023/03/24 05:05:04;;;;;;;11.77;4.17;;;;;;;;;;5112434;28;20193;-84
2023/03/24 05:07:33;;;;;;;4.00;2.87;;;;;;;;;;5112207;28;20225;-84
2023/03/24 05:10:01;;;;;;;4.83;2.63;;;;;;;;;;5112111;28;20198;-83
2023/03/24 05:12:29;;;;;;;19.30;3.93;;;;;;;;;;5112037;28;20202;-84
2023/03/24 05:15:00;;;;;;;10.70;2.33;;;;;;;;;;5112210;28;20254;-84
2023/03/24 05:17:28;;;;;;;6.67;2.33;;;;;;;;;;5111987;28;20246;-84
2023/03/24 05:19:56;;;;;;;12.07;3.03;;;;;;;;;;5115397;28;20205;-84
2023/03/24 05:22:25;;;;;;;6.80;3.63;;;;;;;;;;5116040;28;20238;-84
2023/03/24 05:24:53;;;;;;;17.77;4.80;;;;;;;;;;5116085;28;20198;-83
2023/03/24 05:27:21;;;;;;;18.77;4.93;;;;;;;;;;5115811;28;20205;-84
2023/03/24 05:29:50;;;;;;;8.10;2.93;;;;;;;;;;5115847;28;20289;-83
2023/03/24 05:32:20;;;;;;;6.93;2.60;;;;;;;;;;5115916;28;20229;-84
2023/03/24 05:34:48;;;;;;;25.27;3.93;;;;;;;;;;5115735;28;20250;-83
2023/03/24 05:37:17;;;;;;;10.70;3.47;;;;;;;;;;5115861;28;20310;-85
2023/03/24 05:39:45;;;;;;;10.17;3.50;;;;;;;;;;5115472;28;20198;-84
2023/03/24 05:42:13;;;;;;;19.30;5.33;;;;;;;;;;5115693;28;20278;-84
2023/03/24 05:44:42;;;;;;;11.20;2.83;;;;;;;;;;5115198;28;20293;-82
2023/03/24 05:47:11;;;;;;;15.50;5.40;;;;;;;;;;5115401;28;20252;-84
2023/03/24 05:49:41;;;;;;;12.23;3.67;;;;;;;;;;5115376;28;20234;-83
2023/03/24 05:52:10;;;;;;;12.50;4.47;;;;;;;;;;5115269;27;20228;-84
2023/03/24 05:54:39;;;;;;;16.03;5.40;;;;;;;;;;5115143;28;20280;-83
2023/03/24 05:57:07;;;;;;;19.13;6.63;;;;;;;;;;5115457;28;20289;-84
2023/03/24 05:59:36;;;;;;;18.07;4.37;;;;;;;;;;5115718;28;20203;-84
2023/03/24 06:02:05;;;;;;;12.87;5.07;;;;;;;;;;5115325;28;20217;-84
2023/03/24 06:04:33;;;;;;;6.33;2.97;;;;;;;;;;5115153;28;20192;-84
2023/03/24 06:07:03;;;;;;;17.23;6.77;;;;;;;;;;5115264;28;20242;-83
2023/03/24 06:09:34;;;;;;;16.77;4.03;;;;;;;;;;5115022;28;20199;-84
2023/03/24 06:12:06;;;;;;;9.80;4.13;;;;;;;;;;5115070;27;20238;-84
2023/03/24 06:14:35;;;;;;;12.27;2.63;;;;;;;;;;5114673;28;20229;-84
2023/03/24 06:17:03;;;;;;;5.67;2.40;;;;;;;;;;5115020;28;20301;-84
2023/03/24 06:19:33;;;;;;;9.53;4.40;;;;;;;;;;5114951;28;20252;-83
2023/03/24 06:22:02;;;;;;;13.73;4.10;;;;;;;;;;5114674;28;20333;-84
2023/03/24 06:24:31;;;;;;;20.37;5.03;;;;;;;;;;5114705;28;20294;-83
2023/03/24 06:27:01;;;;;;;6.63;2.97;;;;;;;;;;5114720;28;20206;-83
2023/03/24 06:29:30;;;;;;;26.20;9.13;;;;;;;;;;5113923;28;20204;-84
2023/03/24 06:31:58;;;;;;;6.43;3.77;;;;;;;;;;5114591;28;20203;-84
2023/03/24 06:34:28;;;;;;;13.10;5.37;;;;;;;;;;5114424;27;20240;-85
2023/03/24 06:36:56;;;;;;;14.80;3.97;;;;;;;;;;5114863;28;20213;-84
2023/03/24 06:39:25;;;;;;;22.90;4.87;;;;;;;;;;5114660;28;20237;-84
2023/03/24 06:41:55;;;;;;;1.20;1.20;;;;;;;;;;5114416;28;20198;-84
2023/03/24 06:44:23;;;;;;;24.77;4.43;;;;;;;;;;5114296;28;20225;-84
2023/03/24 06:46:51;;;;;;;16.63;5.17;;;;;;;;;;5114556;28;20272;-85
2023/03/24 06:49:20;;;;;;;16.97;3.97;;;;;;;;;;5114300;28;20273;-83
2023/03/24 06:51:48;;;;;;;6.63;2.63;;;;;;;;;;5114072;28;20203;-84
2023/03/24 06:54:17;;;;;;;11.73;3.90;;;;;;;;;;5114011;28;20236;-84
2023/03/24 06:56:45;;;;;;;7.00;3.63;;;;;;;;;;5113984;28;20235;-84
2023/03/24 06:59:16;;;;;;;19.17;5.90;;;;;;;;;;5114156;28;20210;-84
2023/03/24 07:01:48;;;;;;;17.57;5.63;;;;;;;;;;5114512;28;20209;-84
2023/03/24 07:04:16;;;;;;;16.30;3.87;;;;;;;;;;5113993;28;20271;-84
2023/03/24 07:06:45;;;;;;;6.50;3.33;;;;;;;;;;5113785;28;20311;-84
2023/03/24 07:09:32;;;;;;;13.00;3.70;;;;;;;;;;5114112;28;20217;-84
2023/03/24 07:12:02;;;;;;;7.20;2.57;;;;;;;;;;5114210;28;20210;-85
2023/03/24 07:14:32;;;;;;;21.20;5.90;;;;;;;;;;5113458;28;20235;-84
2023/03/24 07:17:00;;;;;;;15.30;4.13;;;;;;;;;;5113863;28;20200;-85
2023/03/24 07:19:29;;;;;;;7.70;3.80;;;;;;;;;;5113392;28;20203;-85
2023/03/24 07:21:57;;;;;;;24.60;4.47;;;;;;;;;;5113488;28;20286;-85
2023/03/24 07:24:26;;;;;;;12.80;4.47;;;;;;;;;;5113336;28;20199;-85
2023/03/24 07:26:57;;;;;;;20.47;5.70;;;;;;;;;;5113660;28;20202;-85
2023/03/24 07:29:25;;;;;;;2.33;1.37;;;;;;;;;;5113522;28;20265;-84
2023/03/24 07:31:57;;;;;;;19.23;4.17;;;;;;;;;;5113898;28;20201;-80
2023/03/24 07:34:26;;;;;;;13.60;3.83;;;;;;;;;;5113662;27;20275;-81
2023/03/24 07:36:54;;;;;;;22.57;5.03;;;;;;;;;;5113439;28;20199;-80
2023/03/24 07:39:23;;;;;;;26.13;5.23;;;;;;;;;;5113450;28;20244;-80
2023/03/24 07:41:52;;;;;;;23.00;4.70;;;;;;;;;;5112285;28;20195;-80
2023/03/24 07:44:21;;;;;;;14.67;4.30;;;;;;;;;;5113278;28;20203;-80
2023/03/24 07:46:49;;;;;;;13.93;4.33;;;;;;;;;;5113318;28;20200;-81
2023/03/24 07:49:19;;;;;;;20.07;6.50;;;;;;;;;;5113440;27;20217;-81
2023/03/24 07:51:48;;;;;;;26.77;4.37;;;;;;;;;;5112809;28;20195;-81
2023/03/24 07:54:16;;;;;;;7.77;2.80;;;;;;;;;;5113373;27;20291;-80
2023/03/24 07:56:46;;;;;;;13.33;4.50;;;;;;;;;;5113253;28;20204;-81
2023/03/24 07:59:16;;;;;;;11.47;4.23;;;;;;;;;;5113940;28;20271;-79
2023/03/24 08:01:44;;;;;;;20.17;4.60;;;;;;;;;;5113273;28;20212;-81
2023/03/24 08:04:15;;;;;;;19.10;3.07;;;;;;;;;;5112977;28;20200;-81
2023/03/24 08:06:45;;;;;;;12.57;4.23;;;;;;;;;;5113027;28;20234;-80
2023/03/24 08:09:15;;;;;;;14.13;5.00;;;;;;;;;;5112804;28;20188;-81
2023/03/24 08:11:43;;;;;;;14.87;4.23;;;;;;;;;;5113002;28;20200;-81
2023/03/24 08:14:11;;;;;;;20.30;4.37;;;;;;;;;;5113010;28;20295;-81
2023/03/24 08:16:40;;;;;;;13.60;4.70;;;;;;;;;;5112876;28;20216;-81
2023/03/24 08:19:09;;;;;;;17.13;4.20;;;;;;;;;;5112941;28;20197;-80
2023/03/24 08:21:37;;;;;;;8.47;3.63;;;;;;;;;;5112485;28;20193;-81
2023/03/24 08:24:07;;;;;;;9.40;2.83;;;;;;;;;;5112854;28;20282;-81
2023/03/24 08:26:36;;;;;;;17.77;4.90;;;;;;;;;;5112585;28;20241;-81
2023/03/24 08:29:04;;;;;;;17.03;4.27;;;;;;;;;;5112788;28;20192;-80
2023/03/24 08:31:33;;;;;;;20.93;5.03;;;;;;;;;;5112831;28;20269;-81
2023/03/24 08:34:03;;;;;;;15.00;4.90;;;;;;;;;;5112611;28;20208;-81
2023/03/24 08:36:31;;;;;;;8.27;3.30;;;;;;;;;;5112741;28;20227;-81
2023/03/24 08:39:00;;;;;;;14.80;5.27;;;;;;;;;;5112631;28;20264;-81
2023/03/24 08:41:33;;;;;;;16.70;4.90;;;;;;;;;;5112597;28;20295;-81
2023/03/24 08:44:03;;;;;;;14.47;5.13;;;;;;;;;;5112642;28;20251;-81
2023/03/24 08:46:34;;;;;;;20.83;6.70;;;;;;;;;;5112275;28;20188;-81
2023/03/24 08:49:03;;;;;;;20.13;4.27;;;;;;;;;;5112375;28;20197;-81
2023/03/24 08:51:31;;;;;;;18.83;5.73;;;;;;;;;;5112524;28;20253;-85
2023/03/24 08:54:00;;;;;;;11.70;3.53;;;;;;;;;;5115504;28;20200;-84
2023/03/24 08:56:30;;;;;;;11.63;4.40;;;;;;;;;;5116344;27;20232;-85
2023/03/24 08:58:58;;;;;;;13.07;3.30;;;;;;;;;;5116947;28;20200;-85
2023/03/24 09:01:27;;;;;;;10.67;2.87;;;;;;;;;;5115161;28;20226;-85
2023/03/24 09:03:57;;;;;;;17.90;5.57;;;;;;;;;;5116273;28;20403;-86
2023/03/24 09:06:26;;;;;;;21.13;4.00;;;;;;;;;;5116176;28;20220;-85
2023/03/24 09:08:54;;;;;;;15.70;6.07;;;;;;;;;;5116398;28;20200;-85
2023/03/24 09:11:23;;;;;;;8.50;3.60;;;;;;;;;;5116028;28;20199;-85
2023/03/24 09:13:53;;;;;;;12.17;4.40;;;;;;;;;;5116235;28;20200;-85
2023/03/24 09:16:22;;;;;;;15.33;4.97;;;;;;;;;;5116280;28;20212;-85
2023/03/24 09:18:50;;;;;;;12.07;4.93;;;;;;;;;;5116357;28;20260;-85
2023/03/24 09:21:19;;;;;;;12.83;4.87;;;;;;;;;;5115890;28;20201;-85
2023/03/24 09:23:47;;;;;;;12.13;3.90;;;;;;;;;;5115412;28;20285;-85
2023/03/24 09:26:16;;;;;;;7.03;2.97;;;;;;;;;;5115595;28;20227;-85
2023/03/24 09:28:44;;;;;;;7.73;3.87;;;;;;;;;;5115964;28;20212;-85
2023/03/24 09:31:14;;;;;;;14.17;3.47;;;;;;;;;;5111428;28;20288;-86
2023/03/24 09:33:43;;;;;;;3.60;1.60;;;;;;;;;;5095292;28;20296;-85
2023/03/24 09:36:12;;;;;;;14.47;2.97;;;;;;;;;;5104974;28;20242;-86
2023/03/24 09:38:43;;;;;;;9.10;4.07;;;;;;;;;;5110419;28;20255;-85
2023/03/24 09:41:16;;;;;;;8.40;3.80;;;;;;;;;;5094701;28;20209;-86
2023/03/24 09:43:47;;;;;;;8.97;3.23;;;;;;;;;;5095442;28;20310;-84
2023/03/24 09:46:22;;;;;;;15.50;4.60;;;;;;;;;;5098962;28;20231;-85
2023/03/24 09:48:52;;;;;;;12.80;2.20;;;;;;;;;;5105851;28;20229;-85
2023/03/24 09:51:23;;;;;;;6.57;2.47;;;;;;;;;;5100611;28;20197;-84
2023/03/24 09:53:56;;;;;;;13.70;3.50;;;;;;;;;;5096920;28;20209;-85
2023/03/24 09:56:28;;;;;;;15.13;3.27;;;;;;;;;;5100108;28;20197;-85
2023/03/24 09:59:02;;;;;;;8.23;2.37;;;;;;;;;;5098681;28;20229;-84
2023/03/24 10:01:32;;;;;;;3.93;1.43;;;;;;;;;;5100644;28;20211;-83
2023/03/24 10:04:01;;;;;;;7.40;2.20;;;;;;;;;;5096441;28;20219;-84
2023/03/24 10:06:32;;;;;;;12.33;4.97;;;;;;;;;;5104490;28;20296;-83
2023/03/24 10:09:08;;;;;;;2.03;1.47;;;;;;;;;;5100714;28;20204;-84
2023/03/24 10:11:39;;;;;;;11.20;3.27;;;;;;;;;;5097319;28;20270;-84
2023/03/24 10:14:13;;;;;;;9.77;2.67;;;;;;;;;;5092313;28;20212;-83
2023/03/24 10:16:48;;;;;;;7.87;3.50;;;;;;;;;;5105660;28;20215;-84
2023/03/24 10:19:24;;;;;;;16.50;4.50;;;;;;;;;;5101691;28;20202;-84
2023/03/24 10:21:55;;;;;;;12.57;4.10;;;;;;;;;;5092946;28;20294;-84
2023/03/24 10:24:26;;;;;;;14.63;4.50;;;;;;;;;;5097588;28;20220;-84
2023/03/24 10:26:59;;;;;;;12.87;3.57;;;;;;;;;;5094018;28;20249;-83
2023/03/24 10:29:30;;;;;;;10.17;3.10;;;;;;;;;;5104197;28;20227;-84
2023/03/24 10:32:01;;;;;;;12.77;4.70;;;;;;;;;;5090491;28;20193;-84
2023/03/24 10:34:32;;;;;;;6.50;2.37;;;;;;;;;;5099370;28;20213;-83
2023/03/24 10:37:01;;;;;;;20.30;5.50;;;;;;;;;;5099349;28;20209;-84
2023/03/24 10:39:30;;;;;;;7.70;2.77;;;;;;;;;;5100856;28;20274;-84
2023/03/24 10:42:15;;;;;;;9.17;3.37;;;;;;;;;;5100183;28;20209;-84
2023/03/24 10:44:44;;;;;;;6.23;2.07;;;;;;;;;;5099842;28;20207;-85
2023/03/24 10:47:15;;;;;;;4.73;2.53;;;;;;;;;;5104172;28;20196;-84
2023/03/24 10:49:53;;;;;;;8.73;3.13;;;;;;;;;;5102250;28;20247;-83
2023/03/24 10:52:23;;;;;;;13.27;3.60;;;;;;;;;;5100077;28;21611;-83
2023/03/24 10:54:56;;;;;;;15.80;3.30;;;;;;;;;;5095143;28;20299;-84
2023/03/24 10:57:25;;;;;;;17.10;4.30;;;;;;;;;;5100811;28;20208;-84
2023/03/24 10:59:55;;;;;;;13.07;4.93;;;;;;;;;;5097819;28;20235;-83
2023/03/24 11:02:28;;;;;;;9.43;4.03;;;;;;;;;;5100874;28;20203;-83
2023/03/24 11:05:01;;;;;;;12.53;3.33;;;;;;;;;;5099899;28;20204;-84
2023/03/24 11:07:31;;;;;;;8.70;4.23;;;;;;;;;;5107236;27;20197;-84
2023/03/24 11:10:01;;;;;;;5.97;2.07;;;;;;;;;;5107743;28;20204;-84
2023/03/24 11:12:31;;;;;;;17.57;3.33;;;;;;;;;;5096706;28;20213;-84
2023/03/24 11:15:04;;;;;;;7.57;2.03;;;;;;;;;;5107138;28;20281;-83
2023/03/24 11:17:53;;;;;;;12.83;3.27;;;;;;;;;;5106449;28;20216;-84
2023/03/24 11:20:25;;;;;;;12.17;3.60;;;;;;;;;;5111964;27;20246;-84
2023/03/24 11:23:01;;;;;;;9.60;3.30;;;;;;;;;;5106175;28;20269;-84
2023/03/24 11:25:30;;;;;;;10.00;2.90;;;;;;;;;;5112585;28;20231;-84
2023/03/24 11:28:03;;;;;;;9.83;3.90;;;;;;;;;;5112666;28;20227;-84
2023/03/24 11:30:34;;;;;;;6.47;5.67;;;;;;;;;;5108143;28;20189;-84
2023/03/24 11:33:05;;;;;;;9.80;3.33;;;;;;;;;;5113170;28;20224;-84
2023/03/24 11:35:35;;;;;;;17.60;5.17;;;;;;;;;;5112944;28;20218;-83
2023/03/24 11:38:12;;;;;;;15.83;5.27;;;;;;;;;;5111236;28;20220;-84
2023/03/24 11:40:52;;;;;;;8.77;2.40;;;;;;;;;;5109347;28;20212;-84
2023/03/24 11:43:21;;;;;;;12.87;2.70;;;;;;;;;;5100187;28;20197;-84
2023/03/24 11:45:54;;;;;;;7.73;3.07;;;;;;;;;;5098120;28;20211;-84
2023/03/24 11:48:26;;;;;;;16.20;6.17;;;;;;;;;;5100645;28;20193;-83
2023/03/24 11:50:57;;;;;;;9.43;3.40;;;;;;;;;;5092313;28;20259;-83
2023/03/24 11:53:29;;;;;;;18.87;4.73;;;;;;;;;;5102416;28;20204;-84
2023/03/24 11:56:00;;;;;;;6.03;2.83;;;;;;;;;;5104817;28;20196;-83
2023/03/24 11:58:31;;;;;;;15.47;4.73;;;;;;;;;;5106268;28;20261;-84
2023/03/24 12:01:04;;;;;;;9.27;3.20;;;;;;;;;;5103679;28;20283;-84
2023/03/24 12:03:49;;;;;;;7.53;3.00;;;;;;;;;;5101394;28;20208;-84
2023/03/24 12:06:25;;;;;;;9.23;3.60;;;;;;;;;;5099325;28;20220;-84
2023/03/24 12:09:00;;;;;;;3.50;1.63;;;;;;;;;;5091872;28;20209;-82
2023/03/24 12:11:33;;;;;;;7.93;3.07;;;;;;;;;;5089760;28;20216;-84
2023/03/24 12:14:04;;;;;;;7.37;2.03;;;;;;;;;;5096952;28;20441;-84
2023/03/24 12:16:47;;;;;;;8.53;2.97;;;;;;;;;;5106348;28;20287;-84
2023/03/24 12:19:24;;;;;;;4.07;2.27;;;;;;;;;;5102408;28;20235;-83
2023/03/24 12:21:58;;;;;;;10.00;2.80;;;;;;;;;;5092690;28;20200;-83
2023/03/24 12:24:31;;;;;;;7.27;1.87;;;;;;;;;;5094763;28;20314;-83
2023/03/24 12:27:00;;;;;;;12.90;2.23;;;;;;;;;;5091031;28;20231;-83
2023/03/24 12:29:42;;;;;;;13.23;4.37;;;;;;;;;;5090239;28;20216;-84
2023/03/24 12:32:20;;;;;;;9.77;3.50;;;;;;;;;;5095088;28;20203;-84
2023/03/24 12:35:05;;;;;;;8.23;3.33;;;;;;;;;;5094584;28;20200;-84
2023/03/24 12:37:40;;;;;;;3.07;1.87;;;;;;;;;;5097769;28;20316;-83
2023/03/24 12:40:23;;;;;;;7.10;3.53;;;;;;;;;;5093641;28;20273;-84
2023/03/24 12:42:56;;;;;;;15.07;4.47;;;;;;;;;;5093279;28;20208;-84
2023/03/24 12:45:35;;;;;;;3.80;1.57;;;;;;;;;;5097491;28;20201;-83
2023/03/24 12:48:20;;;;;;;12.57;3.83;;;;;;;;;;5103289;28;20279;-83
2023/03/24 12:50:57;;;;;;;13.50;3.20;;;;;;;;;;5111754;28;20208;-84
2023/03/24 12:53:31;;;;;;;9.00;2.40;;;;;;;;;;5107613;28;20261;-84
2023/03/24 12:56:02;;;;;;;9.93;2.47;;;;;;;;;;5103351;28;20270;-84
2023/03/24 12:58:40;;;;;;;5.87;2.63;;;;;;;;;;5112150;28;20378;-84
2023/03/24 13:01:13;;;;;;;11.20;4.00;;;;;;;;;;5112012;28;20200;-83
2023/03/24 13:03:42;;;;;;;17.17;2.13;;;;;;;;;;5111880;28;20293;-84
2023/03/24 13:06:16;;;;;;;9.53;2.07;;;;;;;;;;5111864;28;20215;-83
2023/03/24 13:08:51;;;;;;;9.27;4.07;;;;;;;;;;5112049;28;20202;-83
2023/03/24 13:11:21;;;;;;;20.10;3.07;;;;;;;;;;5107075;28;20204;-84
2023/03/24 13:14:02;;;;;;;8.07;2.77;;;;;;;;;;5091131;28;20196;-84
2023/03/24 13:16:33;;;;;;;11.67;2.63;;;;;;;;;;5091612;28;20329;-83
2023/03/24 13:19:02;;;;;;;13.00;3.53;;;;;;;;;;5091076;28;20221;-84
2023/03/24 13:21:34;;;;;;;13.93;3.17;;;;;;;;;;5091528;28;20204;-84
2023/03/24 13:24:06;;;;;;;8.07;2.60;;;;;;;;;;5090930;28;20248;-83
2023/03/24 13:26:39;;;;;;;17.87;3.80;;;;;;;;;;5091341;28;20200;-84
2023/03/24 13:29:21;;;;;;;6.93;3.33;;;;;;;;;;5103380;28;20204;-84
2023/03/24 13:31:52;;;;;;;9.00;2.70;;;;;;;;;;5094993;28;20211;-84
2023/03/24 13:34:25;;;;;;;8.17;2.93;;;;;;;;;;5091329;28;20205;-84
2023/03/24 13:36:55;;;;;;;7.67;2.40;;;;;;;;;;5091427;28;20262;-84
2023/03/24 13:39:27;;;;;;;14.13;5.20;;;;;;;;;;5096749;28;20295;-83
2023/03/24 13:41:57;;;;;;;6.70;3.23;;;;;;;;;;5101699;28;20200;-82
2023/03/24 13:44:26;;;;;;;18.97;4.73;;;;;;;;;;5099942;28;20208;-82
2023/03/24 13:47:07;;;;;;;8.87;2.57;;;;;;;;;;5094299;28;20219;-83
2023/03/24 13:49:37;;;;;;;16.00;3.50;;;;;;;;;;5095096;28;20211;-84
2023/03/24 13:52:07;;;;;;;11.60;3.53;;;;;;;;;;5099574;27;20271;-83
2023/03/24 13:54:38;;;;;;;17.87;6.40;;;;;;;;;;5100599;28;20205;-84
2023/03/24 13:57:07;;;;;;;6.73;2.90;;;;;;;;;;5094497;28;20266;-83
2023/03/24 13:59:40;;;;;;;11.60;2.80;;;;;;;;;;5102638;28;20257;-84
2023/03/24 14:02:20;;;;;;;14.47;3.83;;;;;;;;;;5094833;28;20201;-83
2023/03/24 14:04:50;;;;;;;13.97;3.67;;;;;;;;;;5102313;28;20209;-83
2023/03/24 14:07:31;;;;;;;12.77;3.53;;;;;;;;;;5097796;28;20192;-82
2023/03/24 14:10:02;;;;;;;7.20;3.70;;;;;;;;;;5093539;28;20207;-84
2023/03/24 14:12:33;;;;;;;11.57;4.23;;;;;;;;;;5093251;28;20281;-83
2023/03/24 14:15:18;;;;;;;8.73;5.63;;;;;;;;;;5100522;28;20208;-83
2023/03/24 14:17:47;;;;;;;5.53;2.50;;;;;;;;;;5100929;28;20228;-83
2023/03/24 14:20:27;;;;;;;9.90;3.73;;;;;;;;;;5100486;28;20224;-82
2023/03/24 14:22:56;;;;;;;7.23;2.57;;;;;;;;;;5097901;28;20240;-83
2023/03/24 14:25:29;;;;;;;4.13;1.43;;;;;;;;;;5107580;27;20204;-82
2023/03/24 14:28:10;;;;;;;11.80;2.80;;;;;;;;;;5106015;28;20235;-82
2023/03/24 14:30:54;;;;;;;8.40;4.27;;;;;;;;;;5092137;28;20201;-82
2023/03/24 14:33:26;;;;;;;7.97;1.77;;;;;;;;;;5102298;28;20301;-83
2023/03/24 14:36:00;;;;;;;13.63;3.37;;;;;;;;;;5096424;28;20258;-82
2023/03/24 14:38:29;;;;;;;11.70;2.97;;;;;;;;;;5097332;28;21579;-82
2023/03/24 14:41:00;;;;;;;10.00;3.67;;;;;;;;;;5098241;28;20297;-82
2023/03/24 14:43:29;;;;;;;7.47;4.57;;;;;;;;;;5100586;28;20200;-82
2023/03/24 14:46:02;;;;;;;12.47;3.33;;;;;;;;;;5096733;28;20236;-82
2023/03/24 14:48:36;;;;;;;7.73;2.57;;;;;;;;;;5099002;28;20200;-82
2023/03/24 14:51:09;;;;;;;6.40;3.07;;;;;;;;;;5099173;28;20202;-82
2023/03/24 14:53:38;;;;;;;12.10;3.80;;;;;;;;;;5099718;28;20201;-80
2023/03/24 14:56:12;;;;;;;6.20;2.00;;;;;;;;;;5101935;28;20212;-79
2023/03/24 14:58:42;;;;;;;10.90;5.30;;;;;;;;;;5093026;28;20220;-80
2023/03/24 15:01:11;;;;;;;2.60;1.83;;;;;;;;;;5098837;28;20259;-80
2023/03/24 15:03:48;;;;;;;11.63;4.07;;;;;;;;;;5097509;28;20205;-80